Observation data for Roaring Springs on 02/14/2020      Previous  Date  Next       Current Mesonet Observations  Soil Data  Daily Summary Page  Observations in Plain Language
KRRS 140600Z 08006KT M05/M08 A3033 RMK A01 T10541075  RH  085%=      5-min Rain = 0
KRRS 140605Z 08006KT M05/M08 A3033 RMK A01 T10541075  RH  085%=      5-min Rain = 0
KRRS 140610Z 08005KT M06/M08 A3033 RMK A01 T10561076  RH  086%=      5-min Rain = 0
KRRS 140615Z 08005KT M06/M08 A3033 RMK A01 T10561076  RH  086%=      5-min Rain = 0
KRRS 140620Z 08004KT M06/M08 A3033 RMK A01 T10581077  RH  086%=      5-min Rain = 0
KRRS 140625Z 08005KT M06/M08 A3033 RMK A01 T10591077  RH  086%=      5-min Rain = 0
KRRS 140630Z 07005KT M06/M08 A3033 RMK A01 T10591078  RH  087%=      5-min Rain = 0
KRRS 140635Z 07005KT M06/M08 A3033 RMK A01 T10601078  RH  087%=      5-min Rain = 0
KRRS 140640Z 07005KT M06/M08 A3033 RMK A01 T10611079  RH  087%=      5-min Rain = 0
KRRS 140645Z 07005KT M06/M08 A3033 RMK A01 T10621079  RH  088%=      5-min Rain = 0
KRRS 140650Z 06005KT M06/M08 A3033 RMK A01 T10621079  RH  088%=      5-min Rain = 0
KRRS 140655Z 07005KT M06/M08 A3033 RMK A01 T10631079  RH  088%=      5-min Rain = 0
KRRS 140700Z 07005KT M06/M08 A3033 RMK A01 T10631080  RH  088%=      5-min Rain = 0
KRRS 140705Z 07004KT M06/M08 A3033 RMK A01 T10631080  RH  088%=      5-min Rain = 0
KRRS 140710Z 07004KT M06/M08 A3033 RMK A01 T10631080  RH  088%=      5-min Rain = 0
KRRS 140715Z 07004KT M06/M08 A3033 RMK A01 T10631080  RH  087%=      5-min Rain = 0
KRRS 140720Z 07004KT M06/M08 A3033 RMK A01 T10631081  RH  087%=      5-min Rain = 0
KRRS 140725Z 07004KT M06/M08 A3033 RMK A01 T10631081  RH  087%=      5-min Rain = 0
KRRS 140730Z 06004KT M06/M08 A3033 RMK A01 T10631081  RH  087%=      5-min Rain = 0
KRRS 140735Z 06004KT M06/M08 A3033 RMK A01 T10641082  RH  087%=      5-min Rain = 0
KRRS 140740Z 06004KT M06/M08 A3034 RMK A01 T10641081  RH  087%=      5-min Rain = 0
KRRS 140745Z 06003KT M06/M08 A3034 RMK A01 T10641080  RH  088%=      5-min Rain = 0
KRRS 140750Z 06003KT M06/M08 A3034 RMK A01 T10641080  RH  088%=      5-min Rain = 0
KRRS 140755Z 06003KT M06/M08 A3034 RMK A01 T10641080  RH  088%=      5-min Rain = 0
KRRS 140800Z 07003KT M06/M08 A3034 RMK A01 T10631080  RH  088%=      5-min Rain = 0
KRRS 140805Z 08003KT M06/M08 A3034 RMK A01 T10631081  RH  087%=      5-min Rain = 0
KRRS 140810Z 08002KT M06/M08 A3034 RMK A01 T10621081  RH  086%=      5-min Rain = 0
KRRS 140815Z 09002KT M06/M08 A3034 RMK A01 T10621081  RH  086%=      5-min Rain = 0
KRRS 140820Z 08002KT M06/M08 A3034 RMK A01 T10641083  RH  086%=      5-min Rain = 0
KRRS 140825Z 07002KT M07/M08 A3034 RMK A01 T10651083  RH  087%=      5-min Rain = 0
KRRS 140830Z 07002KT M06/M08 A3034 RMK A01 T10641082  RH  087%=      5-min Rain = 0
KRRS 140835Z 07002KT M06/M08 A3034 RMK A01 T10631081  RH  087%=      5-min Rain = 0
KRRS 140840Z 07002KT M06/M08 A3034 RMK A01 T10631082  RH  087%=      5-min Rain = 0
KRRS 140845Z 06002KT M06/M08 A3034 RMK A01 T10631082  RH  087%=      5-min Rain = 0
KRRS 140850Z 04002KT M06/M08 A3034 RMK A01 T10641082  RH  087%=      5-min Rain = 0
KRRS 140855Z 04002KT M07/M08 A3034 RMK A01 T10651083  RH  087%=      5-min Rain = 0
KRRS 140900Z 04002KT M07/M08 A3034 RMK A01 T10661083  RH  088%=      5-min Rain = 0
KRRS 140905Z 03003KT M07/M08 A3034 RMK A01 T10661083  RH  088%=      5-min Rain = 0
KRRS 140910Z 02004KT M07/M09 A3034 RMK A01 T10691085  RH  088%=      5-min Rain = 0
KRRS 140915Z 03004KT M07/M09 A3034 RMK A01 T10711086  RH  089%=      5-min Rain = 0
KRRS 140920Z 04004KT M07/M09 A3034 RMK A01 T10721086  RH  090%=      5-min Rain = 0
KRRS 140925Z 03004KT M07/M09 A3034 RMK A01 T10721086  RH  090%=      5-min Rain = 0
KRRS 140930Z 02004KT M07/M09 A3034 RMK A01 T10721086  RH  090%=      5-min Rain = 0
KRRS 140935Z 01004KT M07/M09 A3034 RMK A01 T10721086  RH  090%=      5-min Rain = 0
KRRS 140940Z 00004KT M07/M09 A3034 RMK A01 T10731086  RH  090%=      5-min Rain = 0
KRRS 140945Z 00004KT M07/M09 A3034 RMK A01 T10741087  RH  090%=      5-min Rain = 0
KRRS 140950Z 36004KT M07/M09 A3034 RMK A01 T10741087  RH  091%=      5-min Rain = 0
KRRS 140955Z 35004KT M07/M09 A3034 RMK A01 T10741086  RH  091%=      5-min Rain = 0
KRRS 141000Z 35004KT M08/M09 A3034 RMK A01 T10751087  RH  091%=      5-min Rain = 0
KRRS 141005Z 35004KT M08/M09 A3034 RMK A01 T10761087  RH  092%=      5-min Rain = 0
KRRS 141010Z 35004KT M08/M09 A3034 RMK A01 T10771087  RH  092%=      5-min Rain = 0
KRRS 141015Z 35004KT M08/M09 A3034 RMK A01 T10781087  RH  093%=      5-min Rain = 0
KRRS 141020Z 35005KT M08/M09 A3035 RMK A01 T10791088  RH  093%=      5-min Rain = 0
KRRS 141025Z 36005KT M08/M09 A3035 RMK A01 T10801089  RH  093%=      5-min Rain = 0
KRRS 141030Z 00004KT M08/M09 A3035 RMK A01 T10801089  RH  093%=      5-min Rain = 0
KRRS 141035Z 36004KT M08/M09 A3035 RMK A01 T10801089  RH  093%=      5-min Rain = 0
KRRS 141040Z 01004KT M08/M09 A3035 RMK A01 T10801089  RH  093%=      5-min Rain = 0
KRRS 141045Z 01005KT M08/M09 A3035 RMK A01 T10811089  RH  093%=      5-min Rain = 0
KRRS 141050Z 01005KT M08/M09 A3035 RMK A01 T10811089  RH  093%=      5-min Rain = 0
KRRS 141055Z 01005KT M08/M09 A3035 RMK A01 T10811090  RH  093%=      5-min Rain = 0
KRRS 141100Z 01004KT M08/M09 A3035 RMK A01 T10821090  RH  094%=      5-min Rain = 0
KRRS 141105Z 02005KT M08/M09 A3034 RMK A01 T10831091  RH  094%=      5-min Rain = 0
KRRS 141110Z 02005KT M08/M09 A3035 RMK A01 T10831091  RH  094%=      5-min Rain = 0
KRRS 141115Z 02005KT M08/M09 A3034 RMK A01 T10841091  RH  094%=      5-min Rain = 0
KRRS 141120Z 02004KT M08/M09 A3034 RMK A01 T10841091  RH  094%=      5-min Rain = 0
KRRS 141125Z 02004KT M08/M09 A3034 RMK A01 T10841091  RH  095%=      5-min Rain = 0
KRRS 141130Z 02004KT M09/M09 A3035 RMK A01 T10851092  RH  095%=      5-min Rain = 0
KRRS 141135Z 02005KT M09/M09 A3035 RMK A01 T10861092  RH  095%=      5-min Rain = 0
KRRS 141140Z 03004KT M09/M09 A3034 RMK A01 T10861092  RH  095%=      5-min Rain = 0
KRRS 141145Z 02004KT M09/M09 A3034 RMK A01 T10861092  RH  095%=      5-min Rain = 0
KRRS 141150Z 03004KT M09/M09 A3034 RMK A01 T10861091  RH  095%=      5-min Rain = 0
KRRS 141155Z 03004KT M09/M09 A3034 RMK A01 T10861091  RH  095%=      5-min Rain = 0
KRRS 141200Z 03004KT M09/M09 A3034 RMK A01 T10851091  RH  096%=      5-min Rain = 0
KRRS 141205Z 03004KT M08/M09 A3034 RMK A01 T10831089  RH  096%=      5-min Rain = 0
KRRS 141210Z 02003KT M08/M09 A3034 RMK A01 T10811086  RH  096%=      5-min Rain = 0
KRRS 141215Z 02003KT M08/M09 A3034 RMK A01 T10801085  RH  096%=      5-min Rain = 0
KRRS 141220Z 02003KT M08/M08 A3034 RMK A01 T10781084  RH  096%=      5-min Rain = 0
KRRS 141225Z 03003KT M08/M08 A3034 RMK A01 T10771083  RH  095%=      5-min Rain = 0
KRRS 141230Z 03003KT M08/M08 A3034 RMK A01 T10761082  RH  095%=      5-min Rain = 0
KRRS 141235Z 03003KT M08/M08 A3034 RMK A01 T10751083  RH  094%=      5-min Rain = 0
KRRS 141240Z 03003KT M08/M08 A3034 RMK A01 T10751082  RH  095%=      5-min Rain = 0
KRRS 141245Z 02003KT M07/M08 A3034 RMK A01 T10741081  RH  095%=      5-min Rain = 0
KRRS 141250Z 03003KT M07/M08 A3034 RMK A01 T10741081  RH  095%=      5-min Rain = 0
KRRS 141255Z 03003KT M07/M08 A3034 RMK A01 T10741081  RH  094%=      5-min Rain = 0
KRRS 141300Z 03003KT M07/M08 A3034 RMK A01 T10741082  RH  094%=      5-min Rain = 0
KRRS 141305Z 03002KT M07/M08 A3035 RMK A01 T10741082  RH  093%=      5-min Rain = 0
KRRS 141310Z 03003KT M07/M08 A3035 RMK A01 T10731083  RH  093%=      5-min Rain = 0
KRRS 141315Z 04002KT M07/M08 A3035 RMK A01 T10731083  RH  093%=      5-min Rain = 0
KRRS 141320Z 04002KT M07/M08 A3035 RMK A01 T10731082  RH  093%=      5-min Rain = 0
KRRS 141325Z 05002KT M07/M08 A3035 RMK A01 T10731083  RH  092%=      5-min Rain = 0
KRRS 141330Z 05002KT M07/M08 A3035 RMK A01 T10721082  RH  093%=      5-min Rain = 0
KRRS 141335Z 06002KT M07/M08 A3035 RMK A01 T10711081  RH  092%=      5-min Rain = 0
KRRS 141340Z 05002KT M07/M08 A3036 RMK A01 T10711081  RH  092%=      5-min Rain = 0
KRRS 141345Z 05002KT M07/M08 A3036 RMK A01 T10701081  RH  092%=      5-min Rain = 0
KRRS 141350Z 06002KT M07/M08 A3036 RMK A01 T10691080  RH  092%=      5-min Rain = 0
KRRS 141355Z 07002KT M07/M08 A3036 RMK A01 T10691080  RH  092%=      5-min Rain = 0
KRRS 141400Z 05002KT M07/M08 A3036 RMK A01 T10691080  RH  092%=      5-min Rain = 0
KRRS 141405Z 06001KT M07/M08 A3036 RMK A01 T10691079  RH  092%=      5-min Rain = 0
KRRS 141410Z 10001KT M07/M08 A3036 RMK A01 T10671078  RH  092%=      5-min Rain = 0
KRRS 141415Z 15001KT M07/M08 A3036 RMK A01 T10661077  RH  092%=      5-min Rain = 0
KRRS 141420Z 16000KT M07/M08 A3036 RMK A01 T10661077  RH  091%=      5-min Rain = 0
KRRS 141425Z 08001KT M06/M08 A3036 RMK A01 T10641076  RH  091%=      5-min Rain = 0
KRRS 141430Z 08001KT M06/M08 A3037 RMK A01 T10631076  RH  091%=      5-min Rain = 0
KRRS 141435Z 07000KT M06/M08 A3037 RMK A01 T10631075  RH  091%=      5-min Rain = 0
KRRS 141440Z 12001KT M06/M08 A3037 RMK A01 T10621075  RH  090%=      5-min Rain = 0
KRRS 141445Z 11002KT M06/M07 A3037 RMK A01 T10601074  RH  090%=      5-min Rain = 0
KRRS 141450Z 12002KT M06/M07 A3037 RMK A01 T10591074  RH  090%=      5-min Rain = 0
KRRS 141455Z 10003KT M06/M07 A3037 RMK A01 T10591074  RH  090%=      5-min Rain = 0
KRRS 141500Z 09005KT M06/M07 A3037 RMK A01 T10581072  RH  090%=      5-min Rain = 0
KRRS 141505Z 09004KT M06/M07 A3037 RMK A01 T10571070  RH  091%=      5-min Rain = 0
KRRS 141510Z 11004KT M06/M07 A3037 RMK A01 T10561068  RH  091%=      5-min Rain = 0
KRRS 141515Z 11004KT M06/M07 A3037 RMK A01 T10551067  RH  091%=      5-min Rain = 0
KRRS 141520Z 11003KT M05/M07 A3037 RMK A01 T10531068  RH  090%=      5-min Rain = 0
KRRS 141525Z 13005KT M05/M07 A3037 RMK A01 T10521068  RH  089%=      5-min Rain = 0
KRRS 141530Z 14005KT M05/M07 A3037 RMK A01 T10511068  RH  088%=      5-min Rain = 0
KRRS 141535Z 14006KT M05/M07 A3037 RMK A01 T10491068  RH  087%=      5-min Rain = 0
KRRS 141540Z 15005KT M05/M07 A3037 RMK A01 T10481068  RH  086%=      5-min Rain = 0
KRRS 141545Z 16005KT M05/M07 A3037 RMK A01 T10451065  RH  086%=      5-min Rain = 0
KRRS 141550Z 15006KT M05/M07 A3037 RMK A01 T10451067  RH  085%=      5-min Rain = 0
KRRS 141555Z 13006KT M05/M07 A3037 RMK A01 T10461067  RH  085%=      5-min Rain = 0
KRRS 141600Z 15006KT M05/M07 A3037 RMK A01 T10451065  RH  086%=      5-min Rain = 0
KRRS 141605Z 15005KT M04/M06 A3037 RMK A01 T10431063  RH  086%=      5-min Rain = 0
KRRS 141610Z 17006KT M04/M06 A3037 RMK A01 T10441064  RH  086%=      5-min Rain = 0
KRRS 141615Z 16006KT M05/M06 A3037 RMK A01 T10451064  RH  087%=      5-min Rain = 0
KRRS 141620Z 18005KT M04/M06 A3037 RMK A01 T10441062  RH  088%=      5-min Rain = 0
KRRS 141625Z 15006KT M04/M06 A3036 RMK A01 T10411057  RH  089%=      5-min Rain = 0
KRRS 141630Z 15005KT M04/M06 A3036 RMK A01 T10401058  RH  087%=      5-min Rain = 0
KRRS 141635Z 16006KT M04/M06 A3036 RMK A01 T10401059  RH  087%=      5-min Rain = 0
KRRS 141640Z 17005KT M04/M05 A3036 RMK A01 T10391054  RH  089%=      5-min Rain = 0
KRRS 141645Z 15007KT M04/M05 A3036 RMK A01 T10361052  RH  089%=      5-min Rain = 0
KRRS 141650Z 16006KT M03/M05 A3036 RMK A01 T10341050  RH  089%=      5-min Rain = 0
KRRS 141655Z 16006G11KT M03/M05 A3035 RMK A01 T10331050  RH  088%=      5-min Rain = 0
KRRS 141700Z 17007KT M03/M05 A3035 RMK A01 T10311047  RH  089%=      5-min Rain = 0
KRRS 141705Z 17006KT M03/M05 A3035 RMK A01 T10291045  RH  089%=      5-min Rain = 0
KRRS 141710Z 16007KT M03/M04 A3035 RMK A01 T10261044  RH  088%=      5-min Rain = 0
KRRS 141715Z 17006KT M03/M04 A3035 RMK A01 T10251044  RH  087%=      5-min Rain = 0
KRRS 141720Z 18006KT M02/M04 A3035 RMK A01 T10231043  RH  086%=      5-min Rain = 0
KRRS 141725Z 16006KT M02/M04 A3035 RMK A01 T10221043  RH  086%=      5-min Rain = 0
KRRS 141730Z 16005G10KT M02/M04 A3035 RMK A01 T10181042  RH  084%=      5-min Rain = 0
KRRS 141735Z 17006KT M02/M04 A3034 RMK A01 T10151039  RH  084%=      5-min Rain = 0
KRRS 141740Z 17007KT M01/M03 A3034 RMK A01 T10101034  RH  084%=      5-min Rain = 0
KRRS 141745Z 17007G13KT M01/M04 A3034 RMK A01 T10091035  RH  083%=      5-min Rain = 0
KRRS 141750Z 16008KT M01/M03 A3034 RMK A01 T10081031  RH  085%=      5-min Rain = 0
KRRS 141755Z 18008KT M01/M03 A3033 RMK A01 T10061032  RH  083%=      5-min Rain = 0
KRRS 141800Z 17007KT M01/M03 A3033 RMK A01 T10051030  RH  083%=      5-min Rain = 0
KRRS 141805Z 18009KT M00/M03 A3032 RMK A01 T10021030  RH  082%=      5-min Rain = 0
KRRS 141810Z 19008KT 00/M03 A3032 RMK A01 T00011027  RH  082%=      5-min Rain = 0
KRRS 141815Z 18008KT 00/M03 A3032 RMK A01 T00031026  RH  081%=      5-min Rain = 0
KRRS 141820Z 17010KT 01/M03 A3031 RMK A01 T00071025  RH  080%=      5-min Rain = 0
KRRS 141825Z 18009KT 01/M02 A3031 RMK A01 T00091024  RH  079%=      5-min Rain = 0
KRRS 141830Z 16008KT 01/M02 A303 RMK A01 T00101022  RH  080%=      5-min Rain = 0
KRRS 141835Z 20011KT 02/M02 A303 RMK A01 T00181020  RH  077%=      5-min Rain = 0
KRRS 141840Z 18009KT 01/M03 A303 RMK A01 T00111025  RH  078%=      5-min Rain = 0
KRRS 141845Z 18011KT 02/M02 A303 RMK A01 T00161021  RH  077%=      5-min Rain = 0
KRRS 141850Z 19012KT 02/M02 A3029 RMK A01 T00191018  RH  077%=      5-min Rain = 0
KRRS 141855Z 19012KT 02/M02 A3029 RMK A01 T00241018  RH  074%=      5-min Rain = 0
KRRS 141900Z 19011G18KT 02/M02 A3029 RMK A01 T00171020  RH  077%=      5-min Rain = 0
KRRS 141905Z 19013KT 03/M02 A3028 RMK A01 T00271015  RH  075%=      5-min Rain = 0
KRRS 141910Z 19012KT 03/M01 A3028 RMK A01 T00291013  RH  074%=      5-min Rain = 0
KRRS 141915Z 18012KT 03/M02 A3027 RMK A01 T00311016  RH  072%=      5-min Rain = 0
KRRS 141920Z 17009KT 03/M02 A3027 RMK A01 T00261016  RH  074%=      5-min Rain = 0
KRRS 141925Z 18013KT 04/M01 A3027 RMK A01 T00361011  RH  072%=      5-min Rain = 0
KRRS 141930Z 18012KT 04/M01 A3027 RMK A01 T00361011  RH  072%=      5-min Rain = 0
KRRS 141935Z 19011G16KT 04/M01 A3026 RMK A01 T00391010  RH  071%=      5-min Rain = 0
KRRS 141940Z 18012G19KT 04/M01 A3026 RMK A01 T00401011  RH  070%=      5-min Rain = 0
KRRS 141945Z 18012KT 04/M01 A3026 RMK A01 T00381012  RH  070%=      5-min Rain = 0
KRRS 141950Z 19014KT 04/M01 A3025 RMK A01 T00391011  RH  070%=      5-min Rain = 0
KRRS 141955Z 19013KT 04/M01 A3025 RMK A01 T00401010  RH  071%=      5-min Rain = 0
KRRS 142000Z 18013G19KT 04/M01 A3025 RMK A01 T00421009  RH  070%=      5-min Rain = 0
KRRS 142005Z 19015KT 05/M01 A3024 RMK A01 T00451008  RH  069%=      5-min Rain = 0
KRRS 142010Z 19013G18KT 04/M01 A3024 RMK A01 T00421008  RH  070%=      5-min Rain = 0
KRRS 142015Z 19011G16KT 05/M01 A3024 RMK A01 T00491005  RH  069%=      5-min Rain = 0
KRRS 142020Z 19013G18KT 05/M01 A3023 RMK A01 T00481006  RH  069%=      5-min Rain = 0
KRRS 142025Z 20013KT 05/M01 A3023 RMK A01 T00471006  RH  069%=      5-min Rain = 0
KRRS 142030Z 20013G18KT 05/M01 A3023 RMK A01 T00471006  RH  069%=      5-min Rain = 0
KRRS 142035Z 19013G18KT 05/M01 A3023 RMK A01 T00481005  RH  069%=      5-min Rain = 0
KRRS 142040Z 18013G19KT 05/M01 A3023 RMK A01 T00491005  RH  068%=      5-min Rain = 0
KRRS 142045Z 20014G19KT 05/M01 A3022 RMK A01 T00501005  RH  068%=      5-min Rain = 0
KRRS 142050Z 19016KT 05/M01 A3022 RMK A01 T00491005  RH  069%=      5-min Rain = 0
KRRS 142055Z 18014G20KT 05/M01 A3022 RMK A01 T00491005  RH  069%=      5-min Rain = 0
KRRS 142100Z 19013KT 05/M01 A3022 RMK A01 T00511005  RH  068%=      5-min Rain = 0
KRRS 142105Z 18011G16KT 05/M01 A3022 RMK A01 T00491005  RH  069%=      5-min Rain = 0
KRRS 142110Z 18012G17KT 05/M00 A3021 RMK A01 T00501004  RH  068%=      5-min Rain = 0
KRRS 142115Z 17012KT 05/M01 A3021 RMK A01 T00491006  RH  068%=      5-min Rain = 0
KRRS 142120Z 17013G18KT 05/M01 A3021 RMK A01 T00491005  RH  069%=      5-min Rain = 0
KRRS 142125Z 17012KT 05/M01 A3021 RMK A01 T00501005  RH  069%=      5-min Rain = 0
KRRS 142130Z 17013KT 05/M00 A3021 RMK A01 T00491004  RH  069%=      5-min Rain = 0
KRRS 142135Z 18012KT 05/M00 A3021 RMK A01 T00501004  RH  069%=      5-min Rain = 0
KRRS 142140Z 18014KT 05/M00 A302 RMK A01 T00511003  RH  069%=      5-min Rain = 0
KRRS 142145Z 17014KT 05/M00 A302 RMK A01 T00511003  RH  069%=      5-min Rain = 0
KRRS 142150Z 18011G17KT 05/M00 A302 RMK A01 T00521002  RH  069%=      5-min Rain = 0
KRRS 142155Z 18016KT 05/M00 A302 RMK A01 T00521003  RH  069%=      5-min Rain = 0
KRRS 142200Z 18014KT 05/M00 A302 RMK A01 T00511002  RH  069%=      5-min Rain = 0
KRRS 142205Z 19013G18KT 05/M00 A302 RMK A01 T00511003  RH  069%=      5-min Rain = 0
KRRS 142210Z 18014G19KT 05/M00 A3019 RMK A01 T00511002  RH  069%=      5-min Rain = 0
KRRS 142215Z 17011G16KT 05/M00 A3019 RMK A01 T00511002  RH  069%=      5-min Rain = 0
KRRS 142220Z 18014KT 05/M00 A3019 RMK A01 T00511002  RH  070%=      5-min Rain = 0
KRRS 142225Z 19014KT 05/00 A3019 RMK A01 T005100-0  RH  070%=      5-min Rain = 0
KRRS 142230Z 20016KT 05/00 A3019 RMK A01 T004900-0  RH  071%=      5-min Rain = 0
KRRS 142235Z 19015KT 05/00 A3019 RMK A01 T00450000  RH  073%=      5-min Rain = 0
KRRS 142240Z 19015G21KT 05/00 A3019 RMK A01 T00450001  RH  074%=      5-min Rain = 0
KRRS 142245Z 20015G20KT 04/00 A3018 RMK A01 T00440001  RH  075%=      5-min Rain = 0
KRRS 142250Z 20015KT 04/00 A3018 RMK A01 T00420001  RH  075%=      5-min Rain = 0
KRRS 142255Z 19015KT 04/00 A3018 RMK A01 T00420002  RH  076%=      5-min Rain = 0
KRRS 142300Z 20015KT 04/00 A3018 RMK A01 T00430003  RH  076%=      5-min Rain = 0
KRRS 142305Z 19015G20KT 04/00 A3017 RMK A01 T00430003  RH  076%=      5-min Rain = 0
KRRS 142310Z 19015KT 04/00 A3017 RMK A01 T00430004  RH  077%=      5-min Rain = 0
KRRS 142315Z 19014KT 04/01 A3017 RMK A01 T00440005  RH  077%=      5-min Rain = 0
KRRS 142320Z 19015KT 04/01 A3017 RMK A01 T00440005  RH  077%=      5-min Rain = 0
KRRS 142325Z 19013KT 05/01 A3017 RMK A01 T00450006  RH  077%=      5-min Rain = 0
KRRS 142330Z 19015KT 05/01 A3017 RMK A01 T00450006  RH  077%=      5-min Rain = 0
KRRS 142335Z 19013KT 04/01 A3017 RMK A01 T00430006  RH  078%=      5-min Rain = 0
KRRS 142340Z 19011KT 04/01 A3017 RMK A01 T00430006  RH  078%=      5-min Rain = 0
KRRS 142345Z 20011G16KT 04/01 A3017 RMK A01 T00440006  RH  078%=      5-min Rain = 0
KRRS 142350Z 19010KT 04/01 A3017 RMK A01 T00430006  RH  078%=      5-min Rain = 0
KRRS 142355Z 20009KT 04/01 A3017 RMK A01 T00410006  RH  079%=      5-min Rain = 0
KRRS 150000Z 19011KT 04/01 A3017 RMK A01 T00400006  RH  080%=      5-min Rain = 0
KRRS 150005Z 20010KT 04/01 A3017 RMK A01 T00390006  RH  080%=      5-min Rain = 0
KRRS 150010Z 20011KT 04/01 A3017 RMK A01 T00370005  RH  081%=      5-min Rain = 0
KRRS 150015Z 20011KT 04/01 A3017 RMK A01 T00360005  RH  081%=      5-min Rain = 0
KRRS 150020Z 20009KT 03/01 A3017 RMK A01 T00340005  RH  082%=      5-min Rain = 0
KRRS 150025Z 20009KT 03/00 A3017 RMK A01 T00320004  RH  083%=      5-min Rain = 0
KRRS 150030Z 21008KT 03/00 A3017 RMK A01 T00300004  RH  084%=      5-min Rain = 0
KRRS 150035Z 21008KT 03/00 A3017 RMK A01 T00280003  RH  085%=      5-min Rain = 0
KRRS 150040Z 21008KT 03/00 A3017 RMK A01 T00260003  RH  086%=      5-min Rain = 0
KRRS 150045Z 21008KT 02/00 A3017 RMK A01 T00240002  RH  087%=      5-min Rain = 0
KRRS 150050Z 21007KT 02/00 A3016 RMK A01 T00210001  RH  088%=      5-min Rain = 0
KRRS 150055Z 21007KT 02/M00 A3016 RMK A01 T00181001  RH  089%=      5-min Rain = 0
KRRS 150100Z 21007KT 02/M00 A3016 RMK A01 T00151002  RH  090%=      5-min Rain = 0
KRRS 150105Z 21007KT 01/M00 A3016 RMK A01 T00141001  RH  091%=      5-min Rain = 0
KRRS 150110Z 21007KT 01/M00 A3016 RMK A01 T00121002  RH  091%=      5-min Rain = 0
KRRS 150115Z 21007KT 01/M00 A3016 RMK A01 T00111002  RH  092%=      5-min Rain = 0
KRRS 150120Z 22007KT 01/M00 A3016 RMK A01 T00111002  RH  092%=      5-min Rain = 0
KRRS 150125Z 21007KT 01/M00 A3016 RMK A01 T00101002  RH  093%=      5-min Rain = 0
KRRS 150130Z 21007KT 01/M00 A3016 RMK A01 T00091003  RH  093%=      5-min Rain = 0
KRRS 150135Z 21008KT 01/M00 A3016 RMK A01 T00081002  RH  094%=      5-min Rain = 0
KRRS 150140Z 21007KT 01/M00 A3016 RMK A01 T00081002  RH  094%=      5-min Rain = 0
KRRS 150145Z 21007KT 01/M00 A3016 RMK A01 T00071002  RH  094%=      5-min Rain = 0
KRRS 150150Z 22007KT 01/M00 A3016 RMK A01 T00071002  RH  095%=      5-min Rain = 0
KRRS 150155Z 22008KT 01/M00 A3016 RMK A01 T00071002  RH  095%=      5-min Rain = 0
KRRS 150200Z 22008KT 01/M00 A3016 RMK A01 T00071002  RH  095%=      5-min Rain = 0
KRRS 150205Z 22008KT 01/M00 A3016 RMK A01 T00061002  RH  096%=      5-min Rain = 0
KRRS 150210Z 22009KT 01/M00 A3016 RMK A01 T00071001  RH  096%=      5-min Rain = 0
KRRS 150215Z 21009KT 01/M00 A3015 RMK A01 T00061001  RH  096%=      5-min Rain = 0
KRRS 150220Z 22009KT 01/00 A3015 RMK A01 T000700-0  RH  096%=      5-min Rain = 0
KRRS 150225Z 22008KT 01/M00 A3016 RMK A01 T00071001  RH  096%=      5-min Rain = 0
KRRS 150230Z 22007KT 01/M00 A3015 RMK A01 T00061001  RH  096%=      5-min Rain = 0
KRRS 150235Z 22007KT 00/M00 A3015 RMK A01 T00041003  RH  096%=      5-min Rain = 0
KRRS 150240Z 23007KT 00/M00 A3015 RMK A01 T00031004  RH  096%=      5-min Rain = 0
KRRS 150245Z 22008KT 00/01 A3015 RMK A01 T000000-6  RH  097%=      5-min Rain = 0
KRRS 150250Z 22007KT M00/M01 A3015 RMK A01 T10031008  RH  097%=      5-min Rain = 0
KRRS 150255Z 23007KT M01/M01 A3015 RMK A01 T10051009  RH  098%=      5-min Rain = 0
KRRS 150300Z 23008KT M01/M01 A3015 RMK A01 T10051008  RH  099%=      5-min Rain = 0
KRRS 150305Z 23008KT M00/M01 A3015 RMK A01 T10041007  RH  099%=      5-min Rain = 0
KRRS 150310Z 23009KT M00/M01 A3014 RMK A01 T10031005  RH  099%=      5-min Rain = 0
KRRS 150315Z 22010KT M00/M00 A3014 RMK A01 T10011003  RH  099%=      5-min Rain = 0
KRRS 150320Z 21011KT 00/M00 A3014 RMK A01 T00021001  RH  099%=      5-min Rain = 0
KRRS 150325Z 21011KT 01/00 A3014 RMK A01 T00050000  RH  098%=      5-min Rain = 0
KRRS 150330Z 21010KT 01/00 A3014 RMK A01 T00070001  RH  097%=      5-min Rain = 0
KRRS 150335Z 21011KT 01/00 A3014 RMK A01 T00090003  RH  097%=      5-min Rain = 0
KRRS 150340Z 21012KT 01/00 A3014 RMK A01 T00110004  RH  096%=      5-min Rain = 0
KRRS 150345Z 21011KT 01/00 A3014 RMK A01 T00110004  RH  096%=      5-min Rain = 0
KRRS 150350Z 20011KT 01/00 A3014 RMK A01 T00110004  RH  096%=      5-min Rain = 0
KRRS 150355Z 20011KT 01/01 A3014 RMK A01 T00140006  RH  096%=      5-min Rain = 0
KRRS 150400Z 20011KT 02/01 A3014 RMK A01 T00160007  RH  095%=      5-min Rain = 0
KRRS 150405Z 20011KT 02/01 A3013 RMK A01 T00170007  RH  094%=      5-min Rain = 0
KRRS 150410Z 20011KT 02/01 A3013 RMK A01 T00180008  RH  094%=      5-min Rain = 0
KRRS 150415Z 20011KT 02/01 A3013 RMK A01 T00180008  RH  094%=      5-min Rain = 0
KRRS 150420Z 19011KT 02/01 A3013 RMK A01 T00200009  RH  093%=      5-min Rain = 0
KRRS 150425Z 19011KT 02/01 A3013 RMK A01 T00220010  RH  093%=      5-min Rain = 0
KRRS 150430Z 19011KT 02/01 A3013 RMK A01 T00220010  RH  093%=      5-min Rain = 0
KRRS 150435Z 19011KT 02/01 A3013 RMK A01 T00210009  RH  093%=      5-min Rain = 0
KRRS 150440Z 19011KT 02/01 A3012 RMK A01 T00190008  RH  094%=      5-min Rain = 0
KRRS 150445Z 19010KT 02/01 A3012 RMK A01 T00170007  RH  094%=      5-min Rain = 0
KRRS 150450Z 19009KT 02/01 A3012 RMK A01 T00160006  RH  095%=      5-min Rain = 0
KRRS 150455Z 19009KT 02/01 A3012 RMK A01 T00150006  RH  095%=      5-min Rain = 0
KRRS 150500Z 19009KT 02/01 A3012 RMK A01 T00170007  RH  095%=      5-min Rain = 0
KRRS 150505Z 18010KT 02/01 A3012 RMK A01 T00210010  RH  094%=      5-min Rain = 0
KRRS 150510Z 18010KT 03/01 A3011 RMK A01 T00250011  RH  092%=      5-min Rain = 0
KRRS 150515Z 18010KT 03/01 A3012 RMK A01 T00260012  RH  092%=      5-min Rain = 0
KRRS 150520Z 18010KT 03/01 A3011 RMK A01 T00300013  RH  090%=      5-min Rain = 0
KRRS 150525Z 18010KT 03/01 A3011 RMK A01 T00330014  RH  089%=      5-min Rain = 0
KRRS 150530Z 18011KT 04/02 A3011 RMK A01 T00350015  RH  088%=      5-min Rain = 0
KRRS 150535Z 18011KT 04/02 A3011 RMK A01 T00370015  RH  087%=      5-min Rain = 0
KRRS 150540Z 18011KT 04/02 A3011 RMK A01 T00380015  RH  086%=      5-min Rain = 0
KRRS 150545Z 18011G16KT 04/02 A3011 RMK A01 T00380015  RH  086%=      5-min Rain = 0
KRRS 150550Z 18012KT 04/02 A3011 RMK A01 T00380015  RH  086%=      5-min Rain = 0
KRRS 150555Z 18012G17KT 04/02 A3011 RMK A01 T00390015  RH  086%=      5-min Rain = 0

Page generated in 0.0199 seconds.